createdAt,value
2019-05-15T00:00:52.267Z,62.1033
2019-05-15T00:01:55.308Z,61.7981
2019-05-15T00:02:58.926Z,61.9995
2019-05-15T00:04:02.267Z,62.1033
2019-05-15T00:05:05.299Z,62.2070
2019-05-15T00:06:08.645Z,62.3413
2019-05-15T00:07:11.301Z,62.2375
2019-05-15T00:08:14.343Z,62.2375
2019-05-15T00:09:19.104Z,62.3413
2019-05-15T00:10:22.287Z,62.2375
2019-05-15T00:11:25.321Z,62.2375
2019-05-15T00:12:28.491Z,62.1338
2019-05-15T00:13:31.320Z,62.3413
2019-05-15T00:14:34.295Z,62.2375
2019-05-15T00:15:39.784Z,62.2375
2019-05-15T00:16:42.315Z,62.3413
2019-05-15T00:17:45.280Z,62.3413
2019-05-15T00:18:48.406Z,62.3413
2019-05-15T00:19:51.284Z,62.3413
2019-05-15T00:20:54.297Z,62.3413
2019-05-15T00:21:58.585Z,62.2375
2019-05-15T00:23:01.277Z,62.1643
2019-05-15T00:24:04.349Z,62.1643
2019-05-15T00:25:09.316Z,62.2620
2019-05-15T00:26:12.298Z,62.4695
2019-05-15T00:27:14.293Z,62.3657
2019-05-15T00:28:18.570Z,62.5732
2019-05-15T00:29:21.312Z,62.5732
2019-05-15T00:30:24.315Z,62.5732
2019-05-15T00:31:29.161Z,62.6770
2019-05-15T00:32:32.310Z,62.6770
2019-05-15T00:33:35.306Z,62.6465
2019-05-15T00:34:38.271Z,62.7502
2019-05-15T00:35:41.322Z,62.7502
2019-05-15T00:36:44.269Z,62.4390
2019-05-15T00:37:49.263Z,62.7502
2019-05-15T00:38:52.316Z,62.4390
2019-05-15T00:39:55.317Z,62.5427
2019-05-15T00:40:58.610Z,62.6465
2019-05-15T00:42:01.320Z,62.6465
2019-05-15T00:43:04.292Z,62.8540
2019-05-15T00:44:09.226Z,62.6465
2019-05-15T00:45:12.266Z,62.5427
2019-05-15T00:46:15.273Z,62.5427
2019-05-15T00:47:18.325Z,62.4390
2019-05-15T00:48:21.302Z,62.5427
2019-05-15T00:49:24.335Z,62.5427
2019-05-15T00:50:28.744Z,62.6465
2019-05-15T00:51:30.282Z,62.6465
2019-05-15T00:52:33.292Z,62.8845
2019-05-15T00:53:38.752Z,63.0920
2019-05-15T00:54:42.356Z,63.0920
2019-05-15T00:55:45.277Z,62.9883
2019-05-15T00:56:48.524Z,62.9883
2019-05-15T00:57:51.309Z,62.9883
2019-05-15T00:58:54.282Z,63.0920
2019-05-15T00:59:58.954Z,62.9883
2019-05-15T01:01:02.308Z,63.0920
2019-05-15T01:02:05.283Z,63.0920
2019-05-15T01:03:08.749Z,62.9883
2019-05-15T01:04:12.347Z,63.1165
2019-05-15T01:05:15.282Z,63.3240
2019-05-15T01:06:19.033Z,63.5315
2019-05-15T01:07:21.301Z,63.4277
2019-05-15T01:08:24.272Z,63.4277
2019-05-15T01:09:29.226Z,63.4277
2019-05-15T01:10:32.309Z,63.6353
2019-05-15T01:11:35.288Z,63.5315
2019-05-15T01:12:38.304Z,63.6353
2019-05-15T01:13:41.286Z,63.5315
2019-05-15T01:14:44.346Z,63.3240
2019-05-15T01:15:48.966Z,63.5315
2019-05-15T01:16:52.296Z,63.6353
2019-05-15T01:17:55.307Z,63.7390
2019-05-15T01:18:58.563Z,63.7390
2019-05-15T01:20:01.336Z,63.7390
2019-05-15T01:21:04.268Z,63.8428
2019-05-15T01:22:08.709Z,63.8428
2019-05-15T01:23:11.280Z,64.0442
2019-05-15T01:24:14.306Z,63.8428
2019-05-15T01:25:18.609Z,63.6353
2019-05-15T01:26:23.295Z,63.6353
2019-05-15T01:27:28.997Z,63.8428
2019-05-15T01:28:32.302Z,64.0198
2019-05-15T01:29:41.964Z,64.1174
2019-05-15T01:30:43.301Z,64.2212
2019-05-15T01:31:48.508Z,64.0198
2019-05-15T01:32:52.306Z,64.3250
2019-05-15T01:33:55.260Z,64.2212
2019-05-15T01:34:58.348Z,64.3250
2019-05-15T01:36:01.300Z,64.1174
2019-05-15T01:37:04.287Z,63.9893
2019-05-15T01:38:08.107Z,64.0930
2019-05-15T01:39:11.313Z,63.9893
2019-05-15T01:40:14.300Z,63.7817
2019-05-15T01:41:19.336Z,63.6780
2019-05-15T01:42:22.294Z,64.0930
2019-05-15T01:43:25.297Z,63.9893
2019-05-15T01:44:28.704Z,64.1907
2019-05-15T01:45:31.344Z,63.9893
2019-05-15T01:46:34.271Z,63.9893
2019-05-15T01:47:38.925Z,63.7512
2019-05-15T01:48:41.275Z,63.9587
2019-05-15T01:49:44.310Z,63.7512
2019-05-15T01:50:49.221Z,63.8550
2019-05-15T01:51:52.309Z,63.7512
2019-05-15T01:52:55.295Z,63.7512
2019-05-15T01:53:58.511Z,63.7512
2019-05-15T01:55:01.316Z,63.6475
2019-05-15T01:56:04.308Z,63.6475
2019-05-15T01:57:09.370Z,63.7512
2019-05-15T01:58:12.296Z,63.7512
2019-05-15T01:59:15.266Z,63.6475
2019-05-15T02:00:18.839Z,63.5437
2019-05-15T02:01:22.270Z,63.5193
2019-05-15T02:02:25.308Z,63.6169
2019-05-15T02:03:28.970Z,63.5193
2019-05-15T02:04:32.310Z,63.5193
2019-05-15T02:05:35.284Z,63.5193
2019-05-15T02:06:39.075Z,63.4155
2019-05-15T02:07:42.291Z,63.5193
2019-05-15T02:08:45.281Z,63.5193
2019-05-15T02:09:49.273Z,63.7207
2019-05-15T02:10:51.294Z,63.6169
2019-05-15T02:11:54.305Z,63.7207
2019-05-15T02:12:58.746Z,63.5193
2019-05-15T02:14:01.321Z,63.4155
2019-05-15T02:15:04.278Z,63.7207
2019-05-15T02:16:08.400Z,63.5193
2019-05-15T02:17:11.270Z,63.7207
2019-05-15T02:18:14.300Z,63.6169
2019-05-15T02:19:19.219Z,63.7207
2019-05-15T02:20:21.285Z,63.5193
2019-05-15T02:21:24.282Z,63.6169
2019-05-15T02:22:28.332Z,63.4155
2019-05-15T02:23:31.308Z,63.6169
2019-05-15T02:24:34.291Z,63.4155
2019-05-15T02:25:38.761Z,63.4155
2019-05-15T02:26:42.303Z,63.3118
2019-05-15T02:27:45.310Z,63.3423
2019-05-15T02:28:48.829Z,63.3423
2019-05-15T02:29:52.283Z,63.4460
2019-05-15T02:30:58.467Z,63.5437
2019-05-15T02:32:01.292Z,63.7512
2019-05-15T02:33:04.316Z,63.7512
2019-05-15T02:34:10.097Z,63.9587
2019-05-15T02:35:13.285Z,63.8550
2019-05-15T02:36:20.182Z,63.9587
2019-05-15T02:37:23.317Z,63.9587
2019-05-15T02:38:29.272Z,63.9587
2019-05-15T02:39:32.310Z,64.0625
2019-05-15T02:40:35.311Z,64.1663
2019-05-15T02:41:39.752Z,64.1663
2019-05-15T02:42:43.328Z,64.0625
2019-05-15T02:43:49.713Z,64.0625
2019-05-15T02:44:52.311Z,64.0625
2019-05-15T02:45:55.296Z,64.2700
2019-05-15T02:46:58.938Z,64.2700
2019-05-15T02:48:02.290Z,64.3677
2019-05-15T02:49:08.522Z,64.2700
2019-05-15T02:50:12.290Z,64.1663
2019-05-15T02:51:15.347Z,64.0625
2019-05-15T02:52:19.855Z,63.9587
2019-05-15T02:53:23.280Z,64.0625
2019-05-15T02:54:25.294Z,64.0625
2019-05-15T02:55:29.635Z,63.9587
2019-05-15T02:56:33.375Z,63.8550
2019-05-15T02:57:39.408Z,63.9587
2019-05-15T02:58:42.332Z,64.0930
2019-05-15T02:59:45.290Z,64.0930
2019-05-15T03:00:53.141Z,64.1907
2019-05-15T03:01:59.163Z,64.0930
2019-05-15T03:03:02.314Z,64.1907
2019-05-15T03:04:05.276Z,64.0930
2019-05-15T03:05:09.330Z,64.2212
2019-05-15T03:06:11.486Z,64.3250
2019-05-15T03:07:14.317Z,64.5325
2019-05-15T03:08:19.595Z,64.6362
2019-05-15T03:09:23.298Z,64.5325
2019-05-15T03:10:29.397Z,64.6362
2019-05-15T03:11:32.298Z,64.8438
2019-05-15T03:12:35.301Z,64.5325
2019-05-15T03:13:39.217Z,64.5325
2019-05-15T03:14:42.340Z,64.3250
2019-05-15T03:15:48.631Z,64.4287
2019-05-15T03:16:52.294Z,64.4287
2019-05-15T03:17:55.352Z,64.5325
2019-05-15T03:18:59.737Z,64.4287
2019-05-15T03:20:03.310Z,64.5325
2019-05-15T03:21:09.278Z,64.5325
2019-05-15T03:22:13.328Z,64.5325
2019-05-15T03:23:19.527Z,64.7400
2019-05-15T03:24:22.319Z,64.7400
2019-05-15T03:25:25.273Z,64.9475
2019-05-15T03:26:29.826Z,64.9780
2019-05-15T03:27:34.928Z,64.9780
2019-05-15T03:28:39.364Z,64.8743
2019-05-15T03:29:42.298Z,64.7705
2019-05-15T03:31:15.512Z,64.8743
2019-05-15T03:32:13.225Z,64.7705
2019-05-15T03:33:08.820Z,64.9780
2019-05-15T03:34:20.306Z,64.7705
2019-05-15T03:35:21.972Z,64.8743
2019-05-15T03:36:31.104Z,65.0757
2019-05-15T03:37:34.378Z,64.9780
2019-05-15T03:38:39.360Z,65.1794
2019-05-15T03:39:46.534Z,65.2832
2019-05-15T03:40:50.299Z,65.2832
2019-05-15T03:41:53.308Z,65.3870
2019-05-15T03:42:59.270Z,65.3870
2019-05-15T03:44:02.350Z,65.4907
2019-05-15T03:45:05.354Z,65.4907
2019-05-15T03:46:09.144Z,65.5945
2019-05-15T03:47:12.306Z,65.3870
2019-05-15T03:48:15.305Z,65.3564
2019-05-15T03:49:19.924Z,65.5640
2019-05-15T03:50:23.339Z,65.6677
2019-05-15T03:51:28.922Z,65.4602
2019-05-15T03:52:32.300Z,65.4602
2019-05-15T03:53:35.336Z,65.3564
2019-05-15T03:54:39.218Z,65.5640
2019-05-15T03:55:42.282Z,65.6677
2019-05-15T03:56:45.291Z,65.4907
2019-05-15T03:57:49.884Z,65.8020
2019-05-15T03:58:53.331Z,65.8020
2019-05-15T03:59:56.270Z,65.6982
2019-05-15T04:01:00.167Z,65.6982
2019-05-15T04:02:03.332Z,65.6982
2019-05-15T04:03:06.268Z,65.6982
2019-05-15T04:04:09.701Z,65.6982
2019-05-15T04:05:12.463Z,65.5945
2019-05-15T04:06:14.299Z,65.6982
2019-05-15T04:07:18.826Z,65.7288
2019-05-15T04:08:22.309Z,65.6250
2019-05-15T04:09:25.333Z,65.7288
2019-05-15T04:10:28.835Z,65.8325
2019-05-15T04:11:32.290Z,65.7288
2019-05-15T04:12:35.263Z,65.9363
2019-05-15T04:13:39.680Z,65.9363
2019-05-15T04:14:43.277Z,65.7288
2019-05-15T04:15:49.816Z,65.8325
2019-05-15T04:16:53.302Z,65.7288
2019-05-15T04:17:59.993Z,65.7288
2019-05-15T04:19:03.342Z,65.9363
2019-05-15T04:20:09.594Z,65.8325
2019-05-15T04:21:12.317Z,65.9363
2019-05-15T04:22:15.313Z,65.9363
2019-05-15T04:23:19.065Z,66.0400
2019-05-15T04:24:22.332Z,66.1682
2019-05-15T04:25:25.301Z,66.1682
2019-05-15T04:26:28.870Z,65.9668
2019-05-15T04:27:32.326Z,66.2720
2019-05-15T04:28:35.294Z,66.4795
2019-05-15T04:29:39.744Z,66.3757
2019-05-15T04:30:43.317Z,66.3757
2019-05-15T04:31:58.908Z,66.1682
2019-05-15T04:32:54.339Z,66.1682
2019-05-15T04:33:59.318Z,66.4795
2019-05-15T04:35:02.342Z,66.5833
2019-05-15T04:36:05.270Z,66.4795
2019-05-15T04:37:09.400Z,66.6870
2019-05-15T04:38:13.361Z,66.6870
2019-05-15T04:39:19.053Z,66.7908
2019-05-15T04:40:22.344Z,66.7908
2019-05-15T04:41:25.292Z,67.1021
2019-05-15T04:42:29.946Z,66.8945
2019-05-15T04:43:41.267Z,66.6870
2019-05-15T04:44:41.328Z,66.6870
2019-05-15T04:45:44.316Z,66.8945
2019-05-15T04:46:49.794Z,66.6870
2019-05-15T04:47:52.296Z,66.9983
2019-05-15T04:48:55.326Z,66.9983
2019-05-15T04:49:59.028Z,67.1021
2019-05-15T04:51:02.311Z,67.1021
2019-05-15T04:52:05.271Z,66.9983
2019-05-15T04:53:10.670Z,67.3035
2019-05-15T04:54:14.293Z,66.9983
2019-05-15T04:55:19.669Z,66.9983
2019-05-15T04:56:23.315Z,67.4072
2019-05-15T04:57:30.384Z,67.1021
2019-05-15T04:58:34.348Z,67.1021
2019-05-15T04:59:39.086Z,66.9983
2019-05-15T05:00:42.346Z,67.4072
2019-05-15T05:01:45.304Z,67.6147
2019-05-15T05:02:49.643Z,67.5110
2019-05-15T05:03:54.335Z,67.6147
2019-05-15T05:04:58.794Z,67.5110
2019-05-15T05:06:02.356Z,67.5110
2019-05-15T05:07:05.279Z,67.5842
2019-05-15T05:08:09.262Z,67.4805
2019-05-15T05:09:12.269Z,67.3767
2019-05-15T05:10:14.378Z,67.1692
2019-05-15T05:11:19.793Z,67.1692
2019-05-15T05:12:25.329Z,67.2729
2019-05-15T05:13:28.837Z,67.4805
2019-05-15T05:14:32.318Z,67.3767
2019-05-15T05:15:35.301Z,67.2729
2019-05-15T05:16:39.284Z,67.2729
2019-05-15T05:17:43.310Z,67.3462
2019-05-15T05:18:48.573Z,67.4500
2019-05-15T05:19:52.365Z,67.5537
2019-05-15T05:20:57.610Z,67.6575
2019-05-15T05:22:01.326Z,67.7307
2019-05-15T05:23:04.315Z,67.6270
2019-05-15T05:24:08.053Z,67.8345
2019-05-15T05:25:11.315Z,67.8345
2019-05-15T05:26:14.274Z,67.8345
2019-05-15T05:27:18.283Z,68.0054
2019-05-15T05:28:21.305Z,68.1091
2019-05-15T05:29:24.267Z,68.0054
2019-05-15T05:30:29.269Z,67.7979
2019-05-15T05:31:32.306Z,67.9749
2019-05-15T05:32:35.504Z,67.7673
2019-05-15T05:33:39.318Z,67.6636
2019-05-15T05:34:42.283Z,67.6636
2019-05-15T05:35:45.369Z,67.6636
2019-05-15T05:36:48.308Z,67.7368
2019-05-15T05:37:51.320Z,67.7368
2019-05-15T05:38:54.308Z,67.8406
2019-05-15T05:39:57.737Z,67.8406
2019-05-15T05:41:01.310Z,67.6331
2019-05-15T05:42:04.302Z,67.7063
2019-05-15T05:43:09.452Z,67.6025
2019-05-15T05:44:12.274Z,67.3950
2019-05-15T05:45:15.319Z,67.4683
2019-05-15T05:46:18.591Z,67.3645
2019-05-15T05:47:21.318Z,67.0593
2019-05-15T05:48:24.319Z,67.1631
2019-05-15T05:49:28.858Z,67.2607
2019-05-15T05:50:31.312Z,67.0593
2019-05-15T05:51:34.335Z,67.2607
2019-05-15T05:52:38.959Z,67.1631
2019-05-15T05:53:42.316Z,67.0288
2019-05-15T05:54:45.332Z,66.9556
2019-05-15T05:55:49.201Z,67.0593
2019-05-15T05:56:54.340Z,67.2607
2019-05-15T05:57:58.418Z,67.2302
2019-05-15T05:59:01.294Z,67.1265
2019-05-15T06:00:04.320Z,67.0288
2019-05-15T06:01:09.406Z,66.9250
2019-05-15T06:02:12.301Z,66.8518
2019-05-15T06:03:15.346Z,66.9556
2019-05-15T06:04:18.726Z,66.9556
2019-05-15T06:05:22.321Z,66.9556
2019-05-15T06:06:25.346Z,67.0593
2019-05-15T06:07:28.306Z,67.0593
2019-05-15T06:08:31.316Z,67.1631
2019-05-15T06:09:34.310Z,67.1631
2019-05-15T06:10:38.573Z,67.2607
2019-05-15T06:11:42.339Z,67.1631
2019-05-15T06:12:45.283Z,67.3645
2019-05-15T06:13:52.264Z,67.4988
2019-05-15T06:14:55.309Z,67.5720
2019-05-15T06:15:59.094Z,67.6025
2019-05-15T06:17:02.348Z,68.0176
2019-05-15T06:18:05.312Z,67.9138
2019-05-15T06:19:08.432Z,68.0176
2019-05-15T06:20:11.274Z,67.8101
2019-05-15T06:21:14.334Z,67.9138
2019-05-15T06:22:18.804Z,67.9138
2019-05-15T06:23:25.114Z,68.0176
2019-05-15T06:24:30.525Z,67.9138
2019-05-15T06:25:34.322Z,67.8101
2019-05-15T06:26:38.598Z,67.9138
2019-05-15T06:27:41.317Z,67.8101
2019-05-15T06:28:44.291Z,67.7063
2019-05-15T06:29:48.487Z,67.8101
2019-05-15T06:30:51.315Z,67.9138
2019-05-15T06:31:54.369Z,67.7795
2019-05-15T06:33:05.694Z,67.6758
2019-05-15T06:34:05.326Z,67.3645
2019-05-15T06:35:09.358Z,67.3645
2019-05-15T06:36:12.286Z,67.3645
2019-05-15T06:37:15.355Z,67.3645
2019-05-15T06:38:19.452Z,67.3645
2019-05-15T06:39:23.366Z,67.3340
2019-05-15T06:40:28.752Z,67.5415
2019-05-15T06:41:34.003Z,67.5415
2019-05-15T06:42:39.457Z,67.0959
2019-05-15T06:43:42.288Z,66.5833
2019-05-15T06:44:48.351Z,66.3818
2019-05-15T06:45:51.297Z,66.3818
2019-05-15T06:46:54.340Z,66.2781
2019-05-15T06:47:58.221Z,66.4490
2019-05-15T06:49:03.329Z,66.0400
2019-05-15T06:50:08.418Z,66.4490
2019-05-15T06:51:11.337Z,66.5527
2019-05-15T06:52:14.344Z,66.3452
2019-05-15T06:53:19.356Z,66.0400
2019-05-15T06:54:22.305Z,66.2476
2019-05-15T06:55:25.342Z,66.5222
2019-05-15T06:56:28.187Z,66.6260
2019-05-15T06:57:31.342Z,66.7969
2019-05-15T06:58:34.345Z,66.5955
2019-05-15T06:59:38.927Z,65.5701
2019-05-15T07:00:42.298Z,65.8447
2019-05-15T07:01:47.953Z,65.9485
2019-05-15T07:02:51.318Z,65.6433
2019-05-15T07:03:54.304Z,66.2537
2019-05-15T07:04:58.414Z,66.2231
2019-05-15T07:06:01.301Z,66.0217
2019-05-15T07:07:04.318Z,66.2231
2019-05-15T07:08:09.098Z,66.2231
2019-05-15T07:09:12.336Z,65.7837
2019-05-15T07:10:15.334Z,66.0889
2019-05-15T07:11:19.062Z,66.1926
2019-05-15T07:12:21.382Z,66.0889
2019-05-15T07:13:24.306Z,65.8875
2019-05-15T07:14:28.785Z,65.7837
2019-05-15T07:15:32.322Z,65.3748
2019-05-15T07:16:35.290Z,65.3748
2019-05-15T07:17:39.317Z,64.3494
2019-05-15T07:18:43.312Z,64.5569
2019-05-15T07:19:48.443Z,64.2456
2019-05-15T07:20:51.303Z,64.4531
2019-05-15T07:21:54.367Z,64.2456
2019-05-15T07:22:58.646Z,64.6545
2019-05-15T07:24:02.308Z,64.8621
2019-05-15T07:25:05.307Z,64.8621
2019-05-15T07:26:09.529Z,64.9353
2019-05-15T07:27:13.298Z,64.6240
2019-05-15T07:28:18.122Z,64.2151
2019-05-15T07:29:21.282Z,63.2935
2019-05-15T07:30:24.350Z,63.5010
2019-05-15T07:31:28.891Z,63.8062
2019-05-15T07:32:32.287Z,63.3972
2019-05-15T07:33:40.410Z,63.8062
2019-05-15T07:34:43.304Z,62.7808
2019-05-15T07:35:45.326Z,62.4756
2019-05-15T07:36:49.260Z,63.0920
2019-05-15T07:37:52.338Z,63.7024
2019-05-15T07:38:57.799Z,64.0442
2019-05-15T07:40:01.304Z,64.3494
2019-05-15T07:41:04.625Z,63.0188
2019-05-15T07:42:08.693Z,62.7075
2019-05-15T07:43:12.328Z,62.6099
2019-05-15T07:44:15.379Z,62.1216
2019-05-15T07:45:19.720Z,62.3291
2019-05-15T07:46:23.312Z,62.5366
2019-05-15T07:47:28.800Z,62.6648
2019-05-15T07:48:32.316Z,62.6648
2019-05-15T07:49:35.393Z,62.5610
2019-05-15T07:50:38.899Z,62.5610
2019-05-15T07:51:42.312Z,62.9761
2019-05-15T07:52:45.290Z,63.1775
2019-05-15T07:53:49.022Z,62.6648
2019-05-15T07:54:51.333Z,62.9028
2019-05-15T07:55:54.333Z,63.2080
2019-05-15T07:56:58.221Z,62.6953
2019-05-15T07:58:01.317Z,62.4878
2019-05-15T07:59:04.374Z,63.1042
2019-05-15T08:00:08.252Z,63.3118
2019-05-15T08:01:11.308Z,62.7991
2019-05-15T08:02:14.317Z,62.4878
2019-05-15T08:03:18.411Z,63.0005
2019-05-15T08:04:28.906Z,62.6953
2019-05-15T08:05:29.289Z,62.9028
2019-05-15T08:06:32.330Z,63.2080
2019-05-15T08:07:35.283Z,62.9028
2019-05-15T08:08:39.286Z,63.2080
2019-05-15T08:09:42.331Z,63.3850
2019-05-15T08:10:45.334Z,63.1775
2019-05-15T08:11:48.710Z,63.3850
2019-05-15T08:12:52.276Z,63.1775
2019-05-15T08:13:55.321Z,62.7686
2019-05-15T08:14:58.429Z,62.8418
2019-05-15T08:16:01.309Z,62.5366
2019-05-15T08:17:04.306Z,62.5366
2019-05-15T08:18:09.912Z,62.6099
2019-05-15T08:19:15.324Z,61.9934
2019-05-15T08:20:18.486Z,62.0972
2019-05-15T08:21:21.300Z,62.2986
2019-05-15T08:22:24.350Z,61.6882
2019-05-15T08:23:28.451Z,61.5845
2019-05-15T08:24:31.324Z,61.3770
2019-05-15T08:25:35.474Z,61.3770
2019-05-15T08:26:42.357Z,61.4807
2019-05-15T08:27:48.537Z,62.1948
2019-05-15T08:28:51.307Z,61.9934
2019-05-15T08:29:54.360Z,61.8896
2019-05-15T08:30:58.427Z,62.0972
2019-05-15T08:32:02.381Z,62.0972
2019-05-15T08:33:05.304Z,61.7859
2019-05-15T08:34:15.361Z,61.9934
2019-05-15T08:35:18.927Z,61.7859
2019-05-15T08:36:22.308Z,61.9629
2019-05-15T08:37:25.370Z,61.9629
2019-05-15T08:38:28.949Z,61.7615
2019-05-15T08:39:32.337Z,61.3220
2019-05-15T08:40:35.339Z,60.7056
2019-05-15T08:41:39.098Z,61.3220
2019-05-15T08:42:42.290Z,61.1145
2019-05-15T08:43:45.321Z,61.3953
2019-05-15T08:44:49.004Z,61.5967
2019-05-15T08:45:52.345Z,61.8042
2019-05-15T08:46:55.291Z,61.6699
2019-05-15T08:47:58.670Z,61.3647
2019-05-15T08:49:02.321Z,61.4685
2019-05-15T08:50:05.327Z,60.6506
2019-05-15T08:51:08.858Z,59.8328
2019-05-15T08:52:12.289Z,60.5469
2019-05-15T08:53:15.338Z,60.2417
2019-05-15T08:54:18.482Z,60.4431
2019-05-15T08:55:21.317Z,60.6506
2019-05-15T08:56:24.416Z,59.9365
2019-05-15T08:57:28.973Z,60.9314
2019-05-15T08:58:32.334Z,60.9314
2019-05-15T08:59:35.305Z,60.9009
2019-05-15T09:00:39.794Z,60.7971
2019-05-15T09:01:45.296Z,60.1868
2019-05-15T09:02:48.879Z,60.4919
2019-05-15T09:03:52.304Z,60.5957
2019-05-15T09:04:57.895Z,60.2844
2019-05-15T09:06:01.311Z,59.4666
2019-05-15T09:07:04.388Z,59.5459
2019-05-15T09:08:09.344Z,59.2102
2019-05-15T09:09:12.288Z,59.7229
2019-05-15T09:10:15.345Z,59.9243
2019-05-15T09:11:19.176Z,59.8938
2019-05-15T09:12:21.373Z,58.4412
2019-05-15T09:13:24.315Z,58.2336
2019-05-15T09:14:28.580Z,58.7463
2019-05-15T09:15:32.341Z,59.3018
2019-05-15T09:16:35.331Z,59.1003
2019-05-15T09:17:39.885Z,59.1980
2019-05-15T09:18:43.272Z,58.3862
2019-05-15T09:19:45.320Z,58.5632
2019-05-15T09:20:49.174Z,58.9722
2019-05-15T09:21:52.378Z,58.7585
2019-05-15T09:22:58.266Z,58.5571
2019-05-15T09:24:01.313Z,57.8918
2019-05-15T09:25:04.293Z,56.3904
2019-05-15T09:26:09.221Z,54.1809
2019-05-15T09:27:12.296Z,53.1433
2019-05-15T09:28:15.320Z,53.0457
2019-05-15T09:29:18.461Z,53.0701
2019-05-15T09:30:20.335Z,52.5879
2019-05-15T09:31:23.358Z,53.1433
2019-05-15T09:32:28.312Z,54.6875
2019-05-15T09:33:31.332Z,55.6030
2019-05-15T09:34:47.954Z,55.7068
2019-05-15T09:35:42.346Z,56.0120
2019-05-15T09:36:45.437Z,54.7180
2019-05-15T09:37:48.830Z,54.5898
2019-05-15T09:38:52.312Z,55.3711
2019-05-15T09:39:55.339Z,54.0527
2019-05-15T09:40:58.639Z,53.8757
2019-05-15T09:42:02.332Z,54.3884
2019-05-15T09:43:05.352Z,53.8025
2019-05-15T09:44:08.332Z,54.3335
2019-05-15T09:45:11.331Z,54.6387
2019-05-15T09:46:14.336Z,55.7800
2019-05-15T09:47:18.840Z,55.8838
2019-05-15T09:48:22.331Z,56.2134
2019-05-15T09:49:24.333Z,54.6631
2019-05-15T09:50:28.247Z,55.2246
2019-05-15T09:51:31.320Z,54.3579
2019-05-15T09:52:34.337Z,53.4485
2019-05-15T09:53:39.343Z,53.0640
2019-05-15T09:54:42.331Z,52.8625
2019-05-15T09:55:45.313Z,51.7700
2019-05-15T09:56:50.406Z,51.7944
2019-05-15T09:57:55.156Z,52.5330
2019-05-15T09:58:58.362Z,53.5706
2019-05-15T10:00:01.299Z,52.4780
2019-05-15T10:01:04.284Z,52.9846
2019-05-15T10:02:09.221Z,52.9114
2019-05-15T10:03:12.308Z,52.6306
2019-05-15T10:04:15.312Z,53.3691
2019-05-15T10:05:18.837Z,51.3062
2019-05-15T10:06:24.371Z,53.6255
2019-05-15T10:07:28.584Z,53.8269
2019-05-15T10:08:32.354Z,54.2358
2019-05-15T10:09:35.288Z,53.2166
2019-05-15T10:10:38.305Z,53.8269
2019-05-15T10:11:41.334Z,53.6743
2019-05-15T10:12:44.337Z,54.0283
2019-05-15T10:13:47.352Z,52.9907
2019-05-15T10:14:50.314Z,51.2390
2019-05-15T10:15:53.312Z,51.4404
2019-05-15T10:16:58.412Z,51.4648
2019-05-15T10:18:02.372Z,50.4517
2019-05-15T10:19:05.284Z,51.0864
2019-05-15T10:20:09.155Z,49.9695
2019-05-15T10:21:12.297Z,50.3479
2019-05-15T10:22:15.329Z,49.5911
2019-05-15T10:23:19.465Z,50.9644
2019-05-15T10:24:23.332Z,51.9043
2019-05-15T10:25:28.130Z,51.2268
2019-05-15T10:26:31.300Z,49.9146
2019-05-15T10:27:36.388Z,50.0122
2019-05-15T10:28:41.346Z,48.9014
2019-05-15T10:29:44.326Z,49.1272
2019-05-15T10:30:49.218Z,49.3530
2019-05-15T10:31:53.324Z,47.8821
2019-05-15T10:32:56.328Z,48.6145
2019-05-15T10:33:59.309Z,49.6460
2019-05-15T10:35:02.330Z,50.5859
2019-05-15T10:36:05.297Z,50.8118
2019-05-15T10:37:08.497Z,51.5442
2019-05-15T10:38:11.331Z,52.0264
2019-05-15T10:39:14.317Z,53.0945
2019-05-15T10:40:20.161Z,53.0701
2019-05-15T10:41:23.324Z,52.7649
2019-05-15T10:42:28.875Z,52.1301
2019-05-15T10:43:32.309Z,51.4221
2019-05-15T10:44:35.314Z,51.9043
2019-05-15T10:45:42.405Z,51.4771
2019-05-15T10:46:48.269Z,50.6653
2019-05-15T10:47:51.300Z,49.3774
2019-05-15T10:48:54.351Z,48.3643
2019-05-15T10:49:57.336Z,46.8689
2019-05-15T10:51:05.926Z,47.6013
2019-05-15T10:52:08.727Z,47.5403
2019-05-15T10:53:14.338Z,48.1506
2019-05-15T10:54:19.269Z,48.6816
2019-05-15T10:55:21.305Z,48.4985
2019-05-15T10:56:24.287Z,49.3347
2019-05-15T10:57:28.065Z,47.8333
2019-05-15T10:58:31.379Z,48.4436
2019-05-15T10:59:34.313Z,50.1709
2019-05-15T11:00:37.331Z,50.8057
2019-05-15T11:01:40.306Z,51.1108
2019-05-15T11:02:43.344Z,51.5137
2019-05-15T11:03:46.324Z,49.8901
2019-05-15T11:04:52.329Z,51.5137
2019-05-15T11:05:55.309Z,51.8188
2019-05-15T11:06:58.308Z,52.5330
2019-05-15T11:08:01.314Z,51.7212
2019-05-15T11:09:04.319Z,52.1240
2019-05-15T11:10:08.623Z,52.5330
2019-05-15T11:11:12.310Z,51.5137
2019-05-15T11:12:15.374Z,51.5137
2019-05-15T11:13:18.876Z,52.1240
2019-05-15T11:14:22.334Z,52.2766
2019-05-15T11:15:25.329Z,52.4841
2019-05-15T11:16:28.410Z,52.5818
2019-05-15T11:17:31.607Z,51.9775
2019-05-15T11:18:35.330Z,51.5686
2019-05-15T11:19:40.644Z,51.5930
2019-05-15T11:20:44.311Z,50.4761
2019-05-15T11:21:48.519Z,50.9033
2019-05-15T11:22:51.345Z,51.1108
2019-05-15T11:23:54.339Z,51.6418
2019-05-15T11:24:59.423Z,51.7456
2019-05-15T11:26:02.336Z,52.3499
2019-05-15T11:27:05.295Z,51.5381
2019-05-15T11:28:08.395Z,52.5574
2019-05-15T11:29:11.363Z,52.3499
2019-05-15T11:30:14.296Z,52.9602
2019-05-15T11:31:17.334Z,53.2654
2019-05-15T11:32:20.325Z,53.4729
2019-05-15T11:33:23.326Z,53.3447
2019-05-15T11:34:28.797Z,53.6499
2019-05-15T11:35:32.323Z,53.2410
2019-05-15T11:36:35.278Z,53.2410
2019-05-15T11:37:44.146Z,53.2410
2019-05-15T11:38:45.363Z,53.8513
2019-05-15T11:39:48.411Z,53.9551
2019-05-15T11:40:51.294Z,52.7344
2019-05-15T11:41:54.276Z,52.7344
2019-05-15T11:42:57.300Z,52.7588
2019-05-15T11:44:00.294Z,53.5706
2019-05-15T11:45:03.373Z,53.3691
2019-05-15T11:46:06.318Z,52.2766
2019-05-15T11:47:09.351Z,51.0559
2019-05-15T11:48:12.368Z,51.2573
2019-05-15T11:49:15.298Z,51.7456
2019-05-15T11:50:20.461Z,52.8137
2019-05-15T11:51:24.276Z,51.7456
2019-05-15T11:52:29.485Z,51.7761
2019-05-15T11:53:32.316Z,50.7385
2019-05-15T11:54:35.289Z,50.5127
2019-05-15T11:55:38.810Z,50.2075
2019-05-15T11:56:41.329Z,50.5127
2019-05-15T11:57:47.608Z,50.3113
2019-05-15T11:58:52.313Z,49.8291
2019-05-15T11:59:56.426Z,49.1150
2019-05-15T12:01:02.354Z,50.0549
2019-05-15T12:02:05.270Z,50.7874
2019-05-15T12:03:08.902Z,51.1902
2019-05-15T12:04:26.673Z,51.5198
2019-05-15T12:05:20.275Z,51.3184
2019-05-15T12:06:23.368Z,51.3184
2019-05-15T12:07:28.856Z,51.1169
2019-05-15T12:08:32.304Z,50.9888
2019-05-15T12:09:35.314Z,49.8718
2019-05-15T12:10:38.870Z,49.8291
2019-05-15T12:11:42.350Z,51.1169
2019-05-15T12:12:45.300Z,51.1963
2019-05-15T12:13:48.310Z,49.9817
2019-05-15T12:14:51.295Z,49.6582
2019-05-15T12:15:54.369Z,49.1516
2019-05-15T12:18:05.305Z,49.3774
2019-05-15T12:19:12.730Z,48.8708
2019-05-15T12:20:19.079Z,49.6033
2019-05-15T12:21:22.320Z,48.9136
2019-05-15T12:22:25.337Z,50.0305
2019-05-15T12:23:29.121Z,50.7629
2019-05-15T12:24:36.546Z,50.5615
2019-05-15T12:25:40.344Z,48.1262
2019-05-15T12:26:43.323Z,49.7742
2019-05-15T12:27:49.028Z,49.7742
2019-05-15T12:28:52.300Z,50.3784
2019-05-15T12:29:55.330Z,50.5615
2019-05-15T12:30:59.566Z,51.3489
2019-05-15T12:32:22.011Z,51.5259
2019-05-15T12:33:11.331Z,51.3245
2019-05-15T12:34:14.321Z,51.5991
2019-05-15T12:35:20.439Z,49.6765
2019-05-15T12:37:32.354Z,48.9685
2019-05-15T12:38:35.335Z,47.9797
2019-05-15T12:39:40.961Z,48.0835
2019-05-15T13:00:01.501Z,49.5789
2019-05-15T13:01:15.831Z,47.6562
2019-05-15T13:02:12.294Z,48.9502
2019-05-15T13:03:15.347Z,48.6450
2019-05-15T13:04:19.957Z,49.1516
2019-05-15T13:05:23.353Z,49.6765
2019-05-15T13:06:28.442Z,49.4751
2019-05-15T13:07:31.317Z,49.4751
2019-05-15T13:08:34.347Z,49.4751
2019-05-15T13:09:38.135Z,49.1699
2019-05-15T13:10:41.320Z,48.4619
2019-05-15T13:11:44.318Z,49.4507
2019-05-15T13:12:59.284Z,49.9573